createdAt,value
2022-11-19T00:01:26.653Z,71.39
2022-11-19T00:03:54.118Z,71.19
2022-11-19T00:06:24.158Z,71.29
2022-11-19T00:08:51.378Z,71.30
2022-11-19T00:11:39.316Z,71.40
2022-11-19T00:14:07.150Z,71.25
2022-11-19T00:16:34.159Z,71.58
2022-11-19T00:19:01.328Z,71.97
2022-11-19T00:21:28.460Z,71.70
2022-11-19T00:23:56.041Z,72.12
2022-11-19T00:26:23.841Z,72.23
2022-11-19T00:28:51.160Z,71.98
2022-11-19T00:31:18.724Z,72.19
2022-11-19T00:33:46.738Z,72.58
2022-11-19T00:36:15.406Z,72.78
2022-11-19T00:38:43.498Z,72.63
2022-11-19T00:41:11.011Z,72.81
2022-11-19T00:43:47.801Z,72.92
2022-11-19T00:46:23.339Z,72.78
2022-11-19T00:48:52.236Z,72.90
2022-11-19T00:51:20.838Z,72.60
2022-11-19T00:53:48.206Z,72.62
2022-11-19T00:56:18.138Z,72.41
2022-11-19T00:58:46.130Z,72.36
2022-11-19T01:01:14.286Z,72.50
2022-11-19T01:03:42.677Z,72.47
2022-11-19T01:06:11.658Z,72.76
2022-11-19T01:08:40.216Z,72.39
2022-11-19T01:11:13.640Z,72.36
2022-11-19T01:13:41.081Z,72.27
2022-11-19T01:16:11.576Z,72.29
2022-11-19T01:18:39.955Z,71.89
2022-11-19T01:21:08.616Z,71.99
2022-11-19T01:23:35.716Z,71.75
2022-11-19T01:26:03.578Z,71.82
2022-11-19T01:28:30.776Z,71.48
2022-11-19T01:30:58.014Z,71.42
2022-11-19T01:33:25.155Z,71.46
2022-11-19T01:36:00.258Z,71.22
2022-11-19T01:38:28.967Z,71.60
2022-11-19T01:40:56.577Z,71.10
2022-11-19T01:43:48.522Z,71.65
2022-11-19T01:46:21.656Z,71.36
2022-11-19T01:49:19.310Z,71.33
2022-11-19T01:51:54.556Z,71.49
2022-11-19T01:54:34.735Z,71.50
2022-11-19T01:57:08.837Z,71.39
2022-11-19T01:59:37.495Z,71.36
2022-11-19T02:02:04.616Z,71.00
2022-11-19T02:04:31.875Z,71.20
2022-11-19T02:06:59.137Z,71.33
2022-11-19T02:09:28.164Z,70.95
2022-11-19T02:12:09.916Z,70.78
2022-11-19T02:15:06.535Z,70.59
2022-11-19T02:17:51.795Z,70.91
2022-11-19T02:20:40.536Z,70.84
2022-11-19T02:23:07.576Z,70.78
2022-11-19T02:25:55.757Z,70.63
2022-11-19T02:28:47.156Z,70.43
2022-11-19T02:31:30.517Z,70.78
2022-11-19T02:34:09.616Z,70.90
2022-11-19T02:36:47.768Z,70.72
2022-11-19T02:39:17.448Z,70.88
2022-11-19T02:41:55.856Z,71.11
2022-11-19T02:44:53.803Z,71.11
2022-11-19T02:47:25.956Z,71.12
2022-11-19T02:49:59.537Z,71.18
2022-11-19T02:52:27.856Z,71.28
2022-11-19T02:54:54.683Z,71.53
2022-11-19T02:57:21.655Z,71.13
2022-11-19T03:00:08.975Z,71.16
2022-11-19T03:03:00.895Z,71.15
2022-11-19T03:05:32.275Z,70.70
2022-11-19T03:07:59.983Z,70.93
2022-11-19T03:10:36.676Z,70.79
2022-11-19T03:13:39.180Z,71.11
2022-11-19T03:16:29.815Z,70.47
2022-11-19T03:19:25.783Z,70.40
2022-11-19T03:22:08.478Z,70.43
2022-11-19T03:25:00.856Z,70.48
2022-11-19T03:27:36.774Z,70.19
2022-11-19T03:30:05.360Z,70.18
2022-11-19T03:32:40.897Z,70.29
2022-11-19T03:35:15.342Z,70.55
2022-11-19T03:37:46.264Z,70.16
2022-11-19T03:40:17.856Z,70.40
2022-11-19T03:42:49.376Z,70.46
2022-11-19T03:45:23.695Z,70.03
2022-11-19T03:47:52.718Z,70.40
2022-11-19T03:50:45.037Z,70.16
2022-11-19T03:53:12.395Z,70.44
2022-11-19T03:55:52.974Z,70.29
2022-11-19T03:58:23.643Z,69.97
2022-11-19T04:00:50.763Z,69.91
2022-11-19T04:03:17.815Z,70.41
2022-11-19T04:05:44.834Z,70.26
2022-11-19T04:08:11.775Z,70.12
2022-11-19T04:10:39.076Z,70.25
2022-11-19T04:13:06.036Z,69.95
2022-11-19T04:15:32.955Z,69.97
2022-11-19T04:17:59.956Z,70.03
2022-11-19T04:20:27.035Z,69.89
2022-11-19T04:22:54.035Z,69.89
2022-11-19T04:25:21.078Z,69.74
2022-11-19T04:27:49.216Z,69.76
2022-11-19T04:30:16.655Z,69.95
2022-11-19T04:32:43.735Z,69.61
2022-11-19T04:35:11.637Z,69.55
2022-11-19T04:37:38.654Z,68.85
2022-11-19T04:40:06.296Z,69.22
2022-11-19T04:42:33.297Z,69.41
2022-11-19T04:45:00.495Z,69.09
2022-11-19T04:47:27.537Z,69.28
2022-11-19T04:49:54.515Z,69.48
2022-11-19T04:52:21.536Z,69.62
2022-11-19T04:54:48.595Z,69.74
2022-11-19T04:57:15.596Z,69.75
2022-11-19T04:59:42.859Z,69.60
2022-11-19T05:02:09.901Z,69.83
2022-11-19T05:04:36.865Z,69.92
2022-11-19T05:07:04.936Z,70.00
2022-11-19T05:09:31.883Z,69.56
2022-11-19T05:11:58.895Z,69.82
2022-11-19T05:14:30.061Z,69.72
2022-11-19T05:16:57.575Z,69.21
2022-11-19T05:19:24.656Z,69.04
2022-11-19T05:21:52.155Z,69.09
2022-11-19T05:24:19.408Z,69.32
2022-11-19T05:26:47.008Z,69.13
2022-11-19T05:29:14.261Z,69.27
2022-11-19T05:31:42.208Z,68.95
2022-11-19T05:34:09.488Z,69.08
2022-11-19T05:36:36.810Z,69.15
2022-11-19T05:39:04.132Z,69.01
2022-11-19T05:41:31.292Z,68.90
2022-11-19T05:43:58.489Z,68.97
2022-11-19T05:46:25.727Z,69.23
2022-11-19T05:48:53.014Z,68.91
2022-11-19T05:51:20.730Z,69.12
2022-11-19T05:53:48.104Z,69.61
2022-11-19T05:56:15.408Z,69.39
2022-11-19T05:58:42.690Z,69.13
2022-11-19T06:01:09.887Z,69.35
2022-11-19T06:03:37.097Z,69.02
2022-11-19T06:06:04.486Z,68.70
2022-11-19T06:08:31.725Z,68.81
2022-11-19T06:10:58.967Z,68.42
2022-11-19T06:13:26.449Z,69.08
2022-11-19T06:15:53.809Z,68.91
2022-11-19T06:18:20.972Z,69.09
2022-11-19T06:20:48.367Z,70.50
2022-11-19T06:23:15.566Z,69.78
2022-11-19T06:25:42.867Z,70.57
2022-11-19T06:28:10.729Z,71.17
2022-11-19T06:30:38.090Z,71.19
2022-11-19T06:33:05.422Z,72.40
2022-11-19T06:35:32.647Z,72.46
2022-11-19T06:37:59.847Z,71.10
2022-11-19T06:40:27.126Z,70.61
2022-11-19T06:42:54.330Z,70.35
2022-11-19T06:45:21.528Z,70.63
2022-11-19T06:47:49.895Z,70.94
2022-11-19T06:50:17.087Z,71.58
2022-11-19T06:52:44.407Z,71.40
2022-11-19T06:55:11.735Z,71.44
2022-11-19T06:57:38.848Z,71.98
2022-11-19T07:00:06.729Z,72.35
2022-11-19T07:02:34.050Z,72.02
2022-11-19T07:05:01.494Z,71.74
2022-11-19T07:07:29.258Z,72.35
2022-11-19T07:09:57.165Z,72.19
2022-11-19T07:12:25.626Z,72.46
2022-11-19T07:14:57.462Z,72.75
2022-11-19T07:17:28.270Z,72.53
2022-11-19T07:19:55.552Z,72.95
2022-11-19T07:22:22.931Z,72.50
2022-11-19T07:24:50.174Z,72.28
2022-11-19T07:27:20.929Z,72.43
2022-11-19T07:29:48.529Z,71.89
2022-11-19T07:32:16.168Z,71.97
2022-11-19T07:34:43.375Z,72.16
2022-11-19T07:37:10.730Z,72.29
2022-11-19T07:39:38.913Z,71.88
2022-11-19T07:42:25.648Z,71.94
2022-11-19T07:44:54.976Z,72.41
2022-11-19T07:47:24.096Z,71.69
2022-11-19T07:49:51.370Z,71.94
2022-11-19T07:52:18.568Z,72.46
2022-11-19T07:54:46.107Z,71.92
2022-11-19T07:57:15.672Z,71.92
2022-11-19T07:59:45.102Z,72.04
2022-11-19T08:02:14.020Z,71.91
2022-11-19T08:04:41.938Z,72.17
2022-11-19T08:07:09.231Z,73.71
2022-11-19T08:09:36.529Z,73.26
2022-11-19T08:12:03.730Z,72.66
2022-11-19T08:14:31.347Z,72.41
2022-11-19T08:17:17.369Z,72.65
2022-11-19T08:19:45.606Z,72.80
2022-11-19T08:22:13.288Z,73.12
2022-11-19T08:24:40.408Z,72.13
2022-11-19T08:27:07.686Z,71.52
2022-11-19T08:29:34.777Z,71.37
2022-11-19T08:32:01.886Z,71.42
2022-11-19T08:34:29.207Z,71.90
2022-11-19T08:36:56.408Z,72.02
2022-11-19T08:39:23.933Z,72.24
2022-11-19T08:42:09.648Z,72.34
2022-11-19T08:44:39.167Z,71.92
2022-11-19T08:47:06.288Z,71.76
2022-11-19T08:49:33.493Z,71.33
2022-11-19T08:52:00.696Z,71.61
2022-11-19T08:54:27.966Z,71.77
2022-11-19T08:56:55.168Z,71.62
2022-11-19T08:59:22.656Z,71.98
2022-11-19T09:01:50.768Z,72.41
2022-11-19T09:04:18.518Z,72.31
2022-11-19T09:06:46.211Z,72.00
2022-11-19T09:09:13.371Z,71.74
2022-11-19T09:11:42.944Z,71.53
2022-11-19T09:14:10.806Z,70.94
2022-11-19T09:16:38.045Z,71.10
2022-11-19T09:19:05.245Z,70.78
2022-11-19T09:21:32.409Z,70.69
2022-11-19T09:23:59.609Z,71.20
2022-11-19T09:26:26.734Z,71.31
2022-11-19T09:28:53.806Z,71.68
2022-11-19T09:31:21.126Z,71.62
2022-11-19T09:33:53.248Z,72.33
2022-11-19T09:36:21.205Z,72.27
2022-11-19T09:38:48.929Z,71.88
2022-11-19T09:41:43.848Z,72.08
2022-11-19T09:44:40.121Z,71.99
2022-11-19T09:47:36.904Z,72.37
2022-11-19T09:50:22.409Z,72.42
2022-11-19T09:52:56.527Z,71.97
2022-11-19T09:55:45.456Z,71.94
2022-11-19T09:58:17.885Z,71.83
2022-11-19T10:00:45.648Z,71.87
2022-11-19T10:03:17.139Z,71.89
2022-11-19T10:06:16.565Z,71.76
2022-11-19T10:09:08.729Z,72.22
2022-11-19T10:11:53.484Z,71.55
2022-11-19T10:14:54.486Z,71.47
2022-11-19T10:17:46.527Z,71.20
2022-11-19T10:20:19.187Z,71.34
2022-11-19T10:23:08.647Z,71.29
2022-11-19T10:25:44.807Z,71.58
2022-11-19T10:28:16.654Z,71.51
2022-11-19T10:30:50.485Z,71.38
2022-11-19T10:33:22.086Z,71.79
2022-11-19T10:35:54.815Z,71.86
2022-11-19T10:38:25.365Z,72.50
2022-11-19T10:41:02.245Z,72.95
2022-11-19T10:43:36.407Z,72.50
2022-11-19T10:46:06.769Z,72.54
2022-11-19T10:48:46.649Z,72.17
2022-11-19T10:51:29.016Z,71.80
2022-11-19T10:53:57.687Z,72.22
2022-11-19T10:56:28.693Z,72.32
2022-11-19T10:59:01.855Z,72.38
2022-11-19T11:01:32.715Z,72.74
2022-11-19T11:04:11.686Z,72.20
2022-11-19T11:06:57.857Z,72.59
2022-11-19T11:09:32.607Z,72.49
2022-11-19T11:12:40.611Z,72.25
2022-11-19T11:15:15.971Z,71.87
2022-11-19T11:17:46.206Z,72.10
2022-11-19T11:20:16.349Z,71.80
2022-11-19T11:22:45.807Z,71.52
2022-11-19T11:25:27.467Z,72.07
2022-11-19T11:28:18.606Z,71.88
2022-11-19T11:31:10.410Z,72.42
2022-11-19T11:33:41.131Z,71.66
2022-11-19T11:36:22.848Z,70.98
2022-11-19T11:38:52.411Z,71.40
2022-11-19T11:44:15.174Z,71.19
2022-11-19T11:46:55.434Z,71.42
2022-11-19T11:49:41.517Z,71.73
2022-11-19T11:52:11.604Z,71.57
2022-11-19T11:54:58.631Z,71.27
2022-11-19T11:57:50.707Z,71.06
2022-11-19T12:00:40.436Z,71.27
2022-11-19T12:13:53.549Z,72.73
2022-11-19T12:16:42.768Z,73.88
2022-11-19T12:19:22.016Z,73.47
2022-11-19T12:21:53.909Z,73.42
2022-11-19T12:24:23.667Z,72.95
2022-11-19T12:27:19.189Z,72.77
2022-11-19T12:30:05.519Z,72.53
2022-11-19T12:33:20.977Z,72.84
2022-11-19T12:36:02.859Z,72.45
2022-11-19T12:38:54.569Z,71.70
2022-11-19T12:41:43.389Z,71.96
2022-11-19T12:44:24.237Z,72.05
2022-11-19T12:47:05.847Z,71.94
2022-11-19T12:49:43.038Z,71.98
2022-11-19T12:52:26.887Z,71.96
2022-11-19T12:55:20.487Z,71.51
2022-11-19T12:57:53.853Z,71.59
2022-11-19T13:00:23.441Z,71.41
2022-11-19T13:03:12.815Z,71.43
2022-11-19T13:06:00.238Z,71.65
2022-11-19T13:08:55.367Z,71.27
2022-11-19T13:11:45.986Z,71.64
2022-11-19T13:14:25.026Z,71.84
2022-11-19T13:16:54.798Z,72.13
2022-11-19T13:19:30.556Z,72.15
2022-11-19T13:22:04.087Z,71.60
2022-11-19T13:24:39.348Z,71.70
2022-11-19T13:27:16.507Z,71.71
2022-11-19T13:30:06.047Z,71.32
2022-11-19T13:32:42.277Z,71.49
2022-11-19T13:35:29.256Z,71.27
2022-11-19T13:38:15.164Z,71.55
2022-11-19T13:40:49.686Z,71.45
2022-11-19T13:43:38.526Z,71.12
2022-11-19T13:46:18.491Z,71.30
2022-11-19T13:48:49.407Z,71.37
2022-11-19T13:51:40.266Z,71.23
2022-11-19T13:54:09.159Z,71.96
2022-11-19T13:56:57.707Z,73.32
2022-11-19T13:59:32.668Z,73.47
2022-11-19T14:02:44.376Z,73.43
2022-11-19T14:05:45.358Z,72.85
2022-11-19T14:08:27.216Z,72.06
2022-11-19T14:11:22.088Z,71.69
2022-11-19T14:13:49.076Z,71.29
2022-11-19T14:16:52.468Z,71.09
2022-11-19T14:19:38.350Z,71.13
2022-11-19T14:22:58.507Z,70.77
2022-11-19T14:26:03.717Z,71.21
2022-11-19T14:28:40.030Z,70.67
2022-11-19T14:31:07.128Z,70.65
2022-11-19T14:33:49.160Z,70.56
2022-11-19T14:36:28.568Z,70.95
2022-11-19T14:39:02.437Z,70.95
2022-11-19T14:41:31.190Z,70.96
2022-11-19T14:44:32.310Z,71.07
2022-11-19T14:47:30.068Z,70.58
2022-11-19T14:50:01.360Z,70.50
2022-11-19T14:52:35.216Z,70.04
2022-11-19T14:55:27.405Z,70.22
2022-11-19T14:58:05.510Z,71.15
2022-11-19T15:00:37.674Z,71.96
2022-11-19T15:03:11.995Z,71.84
2022-11-19T15:05:46.096Z,71.90
2022-11-19T15:08:19.311Z,72.43
2022-11-19T15:11:02.777Z,71.88
2022-11-19T15:13:32.507Z,72.08
2022-11-19T15:16:26.920Z,72.00
2022-11-19T15:19:05.766Z,71.79
2022-11-19T15:22:02.543Z,71.74
2022-11-19T15:24:44.960Z,71.50
2022-11-19T15:27:26.063Z,71.65
2022-11-19T15:30:03.285Z,72.00
2022-11-19T15:32:30.815Z,72.48
2022-11-19T15:35:25.426Z,72.54
2022-11-19T15:38:13.226Z,72.53
2022-11-19T15:40:45.505Z,72.76
2022-11-19T15:43:15.316Z,73.07
2022-11-19T15:45:55.067Z,72.54
2022-11-19T15:48:47.007Z,72.40
2022-11-19T15:51:16.580Z,72.03
2022-11-19T15:54:07.206Z,72.64
2022-11-19T15:56:39.507Z,73.23
2022-11-19T15:59:08.719Z,72.60
2022-11-19T16:01:36.458Z,72.37
2022-11-19T16:04:08.083Z,72.41
2022-11-19T16:06:37.347Z,72.46
2022-11-19T16:09:07.588Z,72.48
2022-11-19T16:11:56.636Z,72.76
2022-11-19T16:14:47.731Z,72.82
2022-11-19T16:17:43.627Z,72.50
2022-11-19T16:20:11.067Z,72.08
2022-11-19T16:22:40.566Z,72.99
2022-11-19T16:25:26.106Z,73.04
2022-11-19T16:27:57.228Z,73.02
2022-11-19T16:30:28.288Z,73.54
2022-11-19T16:32:59.911Z,73.32
2022-11-19T16:35:30.876Z,73.61
2022-11-19T16:38:00.295Z,73.21
2022-11-19T16:40:49.090Z,72.77
2022-11-19T16:43:16.992Z,72.24
2022-11-19T16:45:46.941Z,72.25
2022-11-19T16:48:43.443Z,72.49
2022-11-19T16:51:36.101Z,72.95
2022-11-19T16:54:06.002Z,72.78
2022-11-19T16:56:40.448Z,72.59
2022-11-19T16:59:07.668Z,73.03
2022-11-19T17:01:36.034Z,73.00
2022-11-19T17:04:04.990Z,73.36
2022-11-19T17:06:37.000Z,74.15
2022-11-19T17:09:06.177Z,74.11
2022-11-19T17:12:13.648Z,73.78
2022-11-19T17:14:47.111Z,73.43
2022-11-19T17:17:25.878Z,73.73
2022-11-19T17:19:52.958Z,73.61
2022-11-19T17:22:27.099Z,73.80
2022-11-19T17:24:54.192Z,74.12
2022-11-19T17:27:38.232Z,73.15
2022-11-19T17:30:21.973Z,73.21
2022-11-19T17:32:59.797Z,72.44
2022-11-19T17:35:42.002Z,72.61
2022-11-19T17:38:21.849Z,72.79
2022-11-19T17:40:52.017Z,72.49
2022-11-19T17:43:58.168Z,73.12
2022-11-19T17:46:27.627Z,73.57
2022-11-19T17:48:55.359Z,73.70
2022-11-19T17:51:24.473Z,73.20
2022-11-19T17:53:52.946Z,73.16
2022-11-19T17:56:26.999Z,73.37
2022-11-19T17:58:54.955Z,72.91
2022-11-19T18:01:22.873Z,73.25
2022-11-19T18:03:49.968Z,73.55
2022-11-19T18:06:18.549Z,73.28
2022-11-19T18:08:46.224Z,73.71
2022-11-19T18:11:17.217Z,73.44
2022-11-19T18:13:45.965Z,72.71
2022-11-19T18:16:37.867Z,72.66
2022-11-19T18:19:10.879Z,72.48
2022-11-19T18:21:38.429Z,72.16
2022-11-19T18:24:05.529Z,71.86
2022-11-19T18:26:32.720Z,72.40
2022-11-19T18:28:59.617Z,72.47
2022-11-19T18:31:28.099Z,72.08
2022-11-19T18:33:56.308Z,72.11
2022-11-19T18:36:24.128Z,72.04
2022-11-19T18:38:52.459Z,71.94
2022-11-19T18:41:19.682Z,71.38
2022-11-19T18:44:05.469Z,71.69
2022-11-19T18:46:32.563Z,71.79
2022-11-19T18:49:00.052Z,71.91
2022-11-19T18:51:29.691Z,72.45
2022-11-19T18:53:56.667Z,71.98
2022-11-19T18:56:23.639Z,71.96
2022-11-19T18:58:50.587Z,72.27
2022-11-19T19:01:17.739Z,72.67
2022-11-19T19:03:45.106Z,72.76
2022-11-19T19:06:12.619Z,72.62
2022-11-19T19:08:39.721Z,72.68
2022-11-19T19:11:27.288Z,72.34
2022-11-19T19:13:54.542Z,72.02
2022-11-19T19:16:22.528Z,72.47
2022-11-19T19:18:49.748Z,72.43
2022-11-19T19:21:21.738Z,72.82
2022-11-19T19:23:49.730Z,72.73
2022-11-19T19:26:18.393Z,72.71
2022-11-19T19:28:49.818Z,72.90
2022-11-19T19:31:18.111Z,72.63
2022-11-19T19:33:46.454Z,72.79
2022-11-19T19:36:14.929Z,72.61
2022-11-19T19:38:42.415Z,72.60
2022-11-19T19:41:15.851Z,72.86
2022-11-19T19:43:43.020Z,72.82
2022-11-19T19:46:18.850Z,72.97
2022-11-19T19:48:49.093Z,72.37
2022-11-19T19:51:17.420Z,72.56
2022-11-19T19:53:44.327Z,72.08
2022-11-19T19:56:21.819Z,72.28
2022-11-19T19:58:50.982Z,72.18
2022-11-19T20:01:26.558Z,72.14
2022-11-19T20:03:54.853Z,71.95
2022-11-19T20:06:23.708Z,72.15
2022-11-19T20:08:50.948Z,72.25
2022-11-19T20:11:20.621Z,72.38
2022-11-19T20:13:48.408Z,72.33
2022-11-19T20:16:18.684Z,72.19
2022-11-19T20:18:48.119Z,72.02
2022-11-19T20:21:21.746Z,72.41
2022-11-19T20:23:49.138Z,72.60
2022-11-19T20:26:20.290Z,72.25
2022-11-19T20:28:48.392Z,72.29
2022-11-19T20:31:18.087Z,72.58
2022-11-19T20:33:46.809Z,72.78
2022-11-19T20:36:15.948Z,72.20
2022-11-19T20:38:46.200Z,71.60
2022-11-19T20:41:34.168Z,72.00
2022-11-19T20:44:20.497Z,71.96
2022-11-19T20:46:49.397Z,72.75
2022-11-19T20:49:18.579Z,72.47
2022-11-19T20:51:46.192Z,72.68
2022-11-19T20:54:13.326Z,72.56
2022-11-19T20:56:41.049Z,71.93
2022-11-19T20:59:08.438Z,71.82
2022-11-19T21:01:36.242Z,72.40
2022-11-19T21:04:04.149Z,72.61
2022-11-19T21:06:32.065Z,73.29
2022-11-19T21:08:59.307Z,72.85
2022-11-19T21:11:26.697Z,73.03
2022-11-19T21:13:53.907Z,72.39
2022-11-19T21:16:25.312Z,72.56
2022-11-19T21:18:52.928Z,72.25
2022-11-19T21:21:21.420Z,71.80
2022-11-19T21:23:48.816Z,71.80
2022-11-19T21:26:18.668Z,71.82
2022-11-19T21:28:47.509Z,71.56
2022-11-19T21:31:16.207Z,71.67
2022-11-19T21:33:43.808Z,71.23
2022-11-19T21:36:11.757Z,71.65
2022-11-19T21:38:39.690Z,71.79
2022-11-19T21:41:07.750Z,72.29
2022-11-19T21:43:35.447Z,71.91
2022-11-19T21:46:06.338Z,72.65
2022-11-19T21:48:33.370Z,72.92
2022-11-19T21:51:00.268Z,73.08
2022-11-19T21:53:27.567Z,73.38
2022-11-19T21:55:57.246Z,72.95
2022-11-19T21:58:24.236Z,72.77
2022-11-19T22:00:51.216Z,72.94
2022-11-19T22:03:18.226Z,72.35
2022-11-19T22:05:45.208Z,72.67
2022-11-19T22:08:12.171Z,72.71
2022-11-19T22:10:44.196Z,72.30
2022-11-19T22:13:12.409Z,72.80
2022-11-19T22:15:39.347Z,72.56
2022-11-19T22:18:06.426Z,72.58
2022-11-19T22:20:33.379Z,72.53
2022-11-19T22:23:00.508Z,72.54
2022-11-19T22:25:27.500Z,72.74
2022-11-19T22:27:54.507Z,72.65
2022-11-19T22:30:21.462Z,72.93
2022-11-19T22:32:48.480Z,72.37
2022-11-19T22:35:15.526Z,72.54
2022-11-19T22:37:42.407Z,72.18
2022-11-19T22:40:10.136Z,72.09
2022-11-19T22:42:37.210Z,72.31
2022-11-19T22:45:04.628Z,72.25
2022-11-19T22:47:31.676Z,72.41
2022-11-19T22:49:58.626Z,72.46
2022-11-19T22:52:25.563Z,72.29
2022-11-19T22:54:52.608Z,72.55
2022-11-19T22:57:19.638Z,72.51
2022-11-19T22:59:46.549Z,72.04
2022-11-19T23:02:13.547Z,72.22
2022-11-19T23:04:40.566Z,72.16
2022-11-19T23:07:07.800Z,72.12
2022-11-19T23:09:34.798Z,72.38
2022-11-19T23:12:20.290Z,71.93
2022-11-19T23:14:47.310Z,71.90
2022-11-19T23:17:14.347Z,72.10
2022-11-19T23:19:41.397Z,72.33
2022-11-19T23:22:08.728Z,72.25
2022-11-19T23:24:35.741Z,72.14
2022-11-19T23:27:02.619Z,72.52
2022-11-19T23:29:29.592Z,72.97
2022-11-19T23:31:56.649Z,73.24
2022-11-19T23:34:23.587Z,72.70
2022-11-19T23:36:50.590Z,72.93
2022-11-19T23:39:18.299Z,72.78
2022-11-19T23:41:45.809Z,72.75
2022-11-19T23:44:13.191Z,72.65
2022-11-19T23:46:40.318Z,72.81
2022-11-19T23:49:07.598Z,72.65
2022-11-19T23:51:37.370Z,72.72
2022-11-19T23:54:05.777Z,72.68
2022-11-19T23:56:34.379Z,72.55
2022-11-19T23:59:02.807Z,72.09
